Time;durP1;ratioP1;P1;durP2;ratioP2;P2;SDS_P1;SDS_P2;PMS_P1;PMS_P2;Temp;Humidity;BMP_temperature;BMP_pressure;BME280_temperature;BME280_humidity;BME280_pressure;Samples;Min_cycle;Max_cycle;Signal;HPM_P1;HPM_P2
2023/01/04 00:01:24;;;;;;;15.18;4.80;;;;;;;5.98;98.18;101791.94;5109233;28;20028;-67
2023/01/04 00:03:50;;;;;;;15.95;5.10;;;;;;;6.05;97.44;101779.69;5099808;28;20074;-67
2023/01/04 00:06:16;;;;;;;19.27;5.22;;;;;;;6.04;98.05;101778.00;5114025;28;20028;-68
2023/01/04 00:08:42;;;;;;;14.00;4.93;;;;;;;5.80;98.48;101745.59;5104482;28;20063;-67
2023/01/04 00:11:12;;;;;;;15.57;5.07;;;;;;;6.02;98.08;101766.59;5106754;28;20448;-68
2023/01/04 00:13:38;;;;;;;11.63;4.63;;;;;;;6.01;98.06;101759.59;5113056;28;20390;-68
2023/01/04 00:16:11;;;;;;;16.35;4.85;;;;;;;6.09;97.52;101753.50;5099772;28;20028;-68
2023/01/04 00:18:36;;;;;;;14.15;4.78;;;;;;;6.05;97.42;101750.28;5111799;28;20062;-67
2023/01/04 00:21:19;;;;;;;15.40;5.35;;;;;;;6.06;97.69;101735.09;5106735;28;20466;-67
2023/01/04 00:23:47;;;;;;;14.98;5.13;;;;;;;6.06;97.53;101737.78;5102273;28;20036;-67
2023/01/04 00:26:23;;;;;;;19.83;6.28;;;;;;;5.94;97.48;101723.78;5112877;28;20028;-67
2023/01/04 00:28:53;;;;;;;16.52;4.93;;;;;;;6.01;97.69;101721.34;5107742;28;20083;-67
2023/01/04 00:31:19;;;;;;;16.42;5.55;;;;;;;6.05;97.24;101726.25;5108394;28;20035;-68
2023/01/04 00:33:45;;;;;;;15.90;5.15;;;;;;;5.84;97.44;101682.88;5115987;28;20028;-67
2023/01/04 00:36:12;;;;;;;13.63;5.30;;;;;;;6.00;97.60;101709.81;5102073;28;20640;-67
2023/01/04 00:38:39;;;;;;;19.48;5.95;;;;;;;6.06;97.18;101706.56;5114316;28;20027;-67
2023/01/04 00:41:06;;;;;;;14.75;5.30;;;;;;;6.06;97.34;101693.22;5109132;28;20035;-67
2023/01/04 00:43:31;;;;;;;13.40;5.45;;;;;;;6.07;96.81;101694.88;5106313;28;20371;-69
2023/01/04 00:45:57;;;;;;;17.00;5.45;;;;;;;6.02;97.50;101689.13;5116516;28;20034;-67
2023/01/04 00:48:23;;;;;;;17.50;5.13;;;;;;;5.99;97.27;101675.22;5104473;28;20031;-67
2023/01/04 00:50:49;;;;;;;11.75;5.05;;;;;;;6.00;97.32;101683.13;5110657;28;20028;-67
2023/01/04 00:53:15;;;;;;;16.00;5.22;;;;;;;6.07;97.24;101675.34;5113102;28;20039;-67
2023/01/04 00:55:41;;;;;;;9.90;3.90;;;;;;;5.63;99.42;101667.91;5108612;28;20031;-67
2023/01/04 00:58:07;;;;;;;12.80;5.03;;;;;;;5.97;98.18;101666.53;5120294;28;20049;-67
2023/01/04 01:00:33;;;;;;;13.15;4.72;;;;;;;6.01;97.83;101666.09;5107181;28;20061;-67
2023/01/04 01:02:59;;;;;;;16.98;4.53;;;;;;;6.09;97.34;101658.19;5113393;28;20023;-67
2023/01/04 01:05:25;;;;;;;12.43;4.20;;;;;;;6.04;97.33;101654.28;5115030;28;20050;-67
2023/01/04 01:07:51;;;;;;;10.18;4.07;;;;;;;5.91;97.74;101619.84;5106994;28;20036;-67
2023/01/04 01:10:16;;;;;;;14.90;4.57;;;;;;;6.01;97.61;101647.38;5120236;28;20103;-67
2023/01/04 01:12:42;;;;;;;18.65;4.68;;;;;;;6.09;97.62;101638.63;5092567;28;20039;-67
2023/01/04 01:15:08;;;;;;;12.27;4.47;;;;;;;6.10;97.36;101635.81;5111190;28;20055;-67
2023/01/04 01:17:35;;;;;;;13.18;3.65;;;;;;;6.13;97.38;101632.00;5116695;28;20528;-67
2023/01/04 01:20:00;;;;;;;11.60;4.05;;;;;;;6.16;97.14;101617.47;5105909;28;20117;-67
2023/01/04 01:22:26;;;;;;;11.88;3.75;;;;;;;6.17;96.90;101617.34;5118924;27;20032;-67
2023/01/04 01:24:51;;;;;;;12.90;4.03;;;;;;;6.16;97.09;101606.78;5111446;28;20035;-67
2023/01/04 01:27:17;;;;;;;13.95;4.45;;;;;;;6.20;96.95;101602.84;5112014;28;20066;-67
2023/01/04 01:29:42;;;;;;;11.68;4.75;;;;;;;5.98;98.43;101599.59;5117410;28;20035;-67
2023/01/04 01:32:08;;;;;;;14.70;4.68;;;;;;;6.18;97.52;101600.31;5105097;28;20043;-67
2023/01/04 01:34:33;;;;;;;15.05;5.40;;;;;;;6.09;97.36;101599.41;5118892;28;20059;-67
2023/01/04 01:36:59;;;;;;;15.65;5.22;;;;;;;6.01;98.38;101585.94;5111036;28;20201;-67
2023/01/04 01:39:24;;;;;;;16.52;4.85;;;;;;;6.05;98.09;101583.81;5108967;28;20372;-67
2023/01/04 01:41:49;;;;;;;15.93;5.40;;;;;;;6.15;97.28;101578.41;5118139;28;20093;-67
2023/01/04 01:44:40;;;;;;;17.65;5.35;;;;;;;5.97;97.83;101571.22;5105751;28;20043;-67
2023/01/04 01:47:12;;;;;;;14.43;5.30;;;;;;;5.92;97.65;101541.38;5112052;28;20024;-67
2023/01/04 01:49:39;;;;;;;12.18;4.85;;;;;;;5.55;97.36;101464.06;5116146;28;20547;-67
2023/01/04 01:52:11;;;;;;;17.50;5.30;;;;;;;6.14;97.36;101550.00;5105243;28;20081;-68
2023/01/04 01:54:46;;;;;;;13.75;5.43;;;;;;;6.06;97.31;101546.25;5115191;28;20051;-67
2023/01/04 01:57:18;;;;;;;13.30;4.95;;;;;;;6.02;96.91;101528.00;5112588;28;20394;-67
2023/01/04 01:59:49;;;;;;;15.88;4.95;;;;;;;6.10;97.30;101530.78;5105293;28;20102;-67
2023/01/04 02:02:15;;;;;;;12.63;4.63;;;;;;;6.03;97.10;101511.00;5117954;28;20028;-67
2023/01/04 02:04:45;;;;;;;14.82;5.03;;;;;;;6.04;97.20;101512.66;5106270;28;20063;-67
2023/01/04 02:07:15;;;;;;;17.02;5.15;;;;;;;6.09;97.06;101516.56;5111353;28;20031;-68
2023/01/04 02:09:41;;;;;;;14.45;4.53;;;;;;;6.02;97.25;101491.44;5116690;28;20035;-68
2023/01/04 02:12:13;;;;;;;14.25;4.85;;;;;;;5.94;97.11;101478.00;5103855;28;20092;-68
2023/01/04 02:14:41;;;;;;;15.90;5.30;;;;;;;6.10;96.64;101494.19;5114617;28;20036;-67
2023/01/04 02:17:13;;;;;;;13.73;4.47;;;;;;;6.10;97.12;101491.53;5110591;28;20075;-68
2023/01/04 02:19:56;;;;;;;11.63;4.80;;;;;;;6.11;96.92;101493.19;5106613;28;20433;-67
2023/01/04 02:22:40;;;;;;;20.10;4.78;;;;;;;6.02;97.39;101479.91;5088902;28;20038;-67
2023/01/04 02:25:43;;;;;;;11.43;4.30;;;;;;;6.05;97.02;101467.09;5111122;28;20032;-67
2023/01/04 02:28:27;;;;;;;14.48;4.50;;;;;;;6.02;97.10;101456.69;5116350;28;20039;-67
2023/01/04 02:31:13;;;;;;;15.52;4.07;;;;;;;6.00;97.21;101442.69;5108460;28;20023;-67
2023/01/04 02:34:04;;;;;;;13.32;3.85;;;;;;;6.04;97.19;101441.38;5067048;28;20060;-67
2023/01/04 02:36:36;;;;;;;9.82;3.72;;;;;;;6.03;96.59;101425.50;5066745;28;20130;-68
2023/01/04 02:39:24;;;;;;;11.60;3.67;;;;;;;6.18;96.43;101428.47;5089679;28;20411;-68
2023/01/04 02:41:56;;;;;;;10.75;3.80;;;;;;;6.10;96.89;101418.56;5041718;28;20454;-67
2023/01/04 02:50:49;;;;;;;13.05;3.42;;;;;;;6.01;96.84;101400.78;5009890;28;20131;-67
2023/01/04 02:53:20;;;;;;;14.30;3.30;;;;;;;5.95;96.82;101390.69;5002286;28;20243;-67
2023/01/04 02:56:34;;;;;;;9.95;3.20;;;;;;;6.06;96.86;101379.75;5018993;28;20049;-67
2023/01/04 02:59:13;;;;;;;11.02;3.03;;;;;;;6.02;96.36;101359.69;4986930;28;20042;-67
2023/01/04 03:07:51;;;;;;;10.98;2.88;;;;;;;6.00;96.66;101335.00;5035358;28;20142;-67
2023/01/04 03:10:19;;;;;;;10.32;2.75;;;;;;;6.00;96.40;101326.97;5035324;28;20068;-67
2023/01/04 03:13:05;;;;;;;8.90;2.53;;;;;;;6.02;95.95;101328.47;5034046;28;20079;-67
2023/01/04 03:15:35;;;;;;;11.93;2.92;;;;;;;5.70;96.71;101298.84;5061976;28;20036;-68
2023/01/04 03:18:13;;;;;;;9.38;3.00;;;;;;;5.91;96.25;101303.84;5054431;28;20048;-68
2023/01/04 03:20:41;;;;;;;10.23;3.00;;;;;;;6.05;96.05;101295.28;5058747;28;20025;-67
2023/01/04 03:35:21;;;;;;;8.27;3.10;;;;;;;5.86;96.19;101238.38;5104587;28;20401;-67
2023/01/04 03:50:14;;;;;;;8.82;3.70;;;;;;;5.71;98.00;101202.56;5113867;28;20039;-68
2023/01/04 03:52:43;;;;;;;8.50;3.38;;;;;;;5.70;98.32;101194.72;5103507;28;20441;-68
2023/01/04 03:55:10;;;;;;;9.27;3.58;;;;;;;5.80;97.21;101195.44;5106316;28;20027;-67
2023/01/04 03:57:35;;;;;;;9.38;3.45;;;;;;;5.75;97.54;101187.06;5111356;28;20405;-67
2023/01/04 04:00:08;;;;;;;12.80;3.42;;;;;;;5.95;96.76;101183.19;5100639;28;20028;-68
2023/01/04 04:02:34;;;;;;;7.82;3.60;;;;;;;5.88;97.10;101166.09;5114798;28;20063;-68
2023/01/04 04:10:30;;;;;;;10.90;3.50;;;;;;;5.69;98.32;101139.63;5103750;28;20038;-68
2023/01/04 04:12:56;;;;;;;5.88;3.10;;;;;;;5.24;99.99;101104.19;5109555;28;20363;-67
2023/01/04 04:15:21;;;;;;;9.23;3.10;;;;;;;5.53;99.94;101121.69;5091934;28;20059;-68
2023/01/04 04:17:46;;;;;;;12.25;3.70;;;;;;;5.73;98.29;101109.81;5116758;28;20427;-67
2023/01/04 04:20:12;;;;;;;10.68;3.50;;;;;;;5.65;98.08;101086.53;5104703;28;20020;-67
2023/01/04 04:22:38;;;;;;;9.18;3.75;;;;;;;5.62;98.19;101070.00;5115975;28;20506;-68
2023/01/04 04:25:04;;;;;;;5.85;2.70;;;;;;;5.05;100.00;101094.53;5108908;28;20100;-68
2023/01/04 04:27:29;;;;;;;7.63;3.67;;;;;;;5.45;100.00;101079.78;5107254;28;20059;-68
2023/01/04 04:29:55;;;;;;;6.47;2.90;;;;;;;5.47;100.00;101064.47;5116013;28;20412;-68
2023/01/04 04:32:20;;;;;;;9.40;2.90;;;;;;;5.63;100.00;101061.03;5104458;28;20078;-68
2023/01/04 04:34:45;;;;;;;7.05;3.33;;;;;;;5.57;99.84;101051.81;5113109;28;20073;-67
2023/01/04 04:37:11;;;;;;;5.93;3.10;;;;;;;5.47;100.00;101050.28;5092438;28;20031;-67
2023/01/04 04:39:36;;;;;;;7.22;2.85;;;;;;;5.58;100.00;101052.66;5106487;28;20024;-67
2023/01/04 04:42:02;;;;;;;7.05;2.58;;;;;;;5.49;100.00;101042.94;5116205;28;20047;-67
2023/01/04 04:44:28;;;;;;;4.90;2.88;;;;;;;5.41;100.00;101025.88;5103192;28;20492;-68
2023/01/04 04:46:53;;;;;;;4.78;2.60;;;;;;;5.63;100.00;101013.81;5111155;28;20055;-67
2023/01/04 04:49:18;;;;;;;5.60;2.90;;;;;;;5.62;99.13;100973.91;5111248;28;20103;-68
2023/01/04 04:51:45;;;;;;;8.80;2.80;;;;;;;5.62;100.00;101008.63;5104262;28;20410;-68
2023/01/04 04:54:16;;;;;;;7.13;2.80;;;;;;;5.73;100.00;100991.47;5116033;28;20032;-67
2023/01/04 04:56:41;;;;;;;7.28;2.90;;;;;;;5.70;100.00;100981.13;5105139;28;20020;-67
2023/01/04 04:59:07;;;;;;;6.95;3.17;;;;;;;5.63;100.00;100979.09;5109792;28;20036;-68
2023/01/04 05:01:33;;;;;;;5.95;3.05;;;;;;;5.34;100.00;100981.34;5112184;28;20035;-68
2023/01/04 05:03:58;;;;;;;3.92;2.63;;;;;;;5.56;100.00;100969.22;5101838;28;20032;-68
2023/01/04 05:06:24;;;;;;;6.20;2.75;;;;;;;5.39;100.00;100965.66;5086925;28;20114;-67
2023/01/04 05:08:49;;;;;;;5.78;2.78;;;;;;;5.49;100.00;100952.19;5113147;28;20024;-67
2023/01/04 05:11:15;;;;;;;6.22;2.78;;;;;;;5.68;100.00;100940.41;5108660;28;20031;-67
2023/01/04 05:13:41;;;;;;;5.50;2.97;;;;;;;5.61;100.00;100914.34;5105094;28;20059;-68
2023/01/04 05:16:08;;;;;;;9.90;3.35;;;;;;;5.28;100.00;100923.28;5117232;28;20032;-67
2023/01/04 05:18:33;;;;;;;4.55;3.00;;;;;;;5.57;100.00;100917.53;5088023;28;20066;-68
2023/01/04 05:20:59;;;;;;;3.78;2.17;;;;;;;5.09;100.00;100913.69;5113635;28;20028;-69
2023/01/04 05:23:25;;;;;;;5.25;2.63;;;;;;;5.05;100.00;100891.84;5110013;28;20040;-69
2023/01/04 05:25:55;;;;;;;7.70;2.75;;;;;;;5.22;100.00;100891.91;5104714;28;20071;-69
2023/01/04 05:28:21;;;;;;;5.53;3.10;;;;;;;5.54;100.00;100883.16;5117122;28;20021;-69
2023/01/04 05:30:52;;;;;;;6.80;3.00;;;;;;;5.57;100.00;100882.81;5106137;28;20043;-68
2023/01/04 05:33:20;;;;;;;3.90;2.60;;;;;;;5.50;100.00;100852.47;5109129;28;20028;-68
2023/01/04 05:35:46;;;;;;;4.32;2.45;;;;;;;5.21;100.00;100847.56;5114944;28;20519;-68
2023/01/04 05:38:12;;;;;;;4.47;2.53;;;;;;;5.35;100.00;100839.75;5103005;28;20059;-68
2023/01/04 05:40:37;;;;;;;4.22;2.70;;;;;;;5.29;100.00;100836.91;5096756;28;20112;-68
2023/01/04 05:43:02;;;;;;;3.47;2.40;;;;;;;5.57;100.00;100829.44;5091402;28;20055;-68
2023/01/04 05:45:28;;;;;;;4.63;2.47;;;;;;;5.38;100.00;100820.75;5107239;28;20073;-68
2023/01/04 05:47:53;;;;;;;2.88;2.08;;;;;;;5.18;100.00;100808.72;5114291;28;20102;-68
2023/01/04 05:50:20;;;;;;;5.07;2.80;;;;;;;5.69;100.00;100803.25;5098783;28;20039;-68
2023/01/04 05:52:46;;;;;;;4.95;2.70;;;;;;;5.68;100.00;100794.41;5110517;28;20027;-68
2023/01/04 05:55:12;;;;;;;5.82;2.22;;;;;;;5.57;100.00;100794.75;5106131;28;20470;-68
2023/01/04 05:57:38;;;;;;;3.88;2.63;;;;;;;5.51;100.00;100742.84;5101810;28;20031;-68
2023/01/04 06:00:06;;;;;;;5.13;2.10;;;;;;;5.56;100.00;100777.91;5112183;28;20095;-68
2023/01/04 06:02:31;;;;;;;3.17;2.22;;;;;;;5.75;100.00;100773.19;5101427;28;20096;-68
2023/01/04 06:04:57;;;;;;;4.78;2.22;;;;;;;5.81;100.00;100757.34;5111171;28;20479;-68
2023/01/04 06:07:23;;;;;;;3.85;2.40;;;;;;;5.63;100.00;100749.53;5110229;28;20186;-69
2023/01/04 06:09:49;;;;;;;5.07;2.30;;;;;;;5.39;100.00;100744.19;5102740;28;20040;-68
2023/01/04 06:12:14;;;;;;;3.22;2.00;;;;;;;5.76;100.00;100734.81;5115233;28;20490;-68
2023/01/04 06:14:40;;;;;;;2.50;1.63;;;;;;;5.08;100.00;100699.50;5102560;28;20505;-68
2023/01/04 06:17:08;;;;;;;2.58;1.85;;;;;;;5.35;100.00;100721.50;5106095;28;20023;-68
2023/01/04 06:19:34;;;;;;;3.38;1.98;;;;;;;5.31;100.00;100678.34;5108328;28;20036;-68
2023/01/04 06:21:59;;;;;;;2.63;1.63;;;;;;;5.36;100.00;100692.00;5099426;28;20415;-68
2023/01/04 06:24:28;;;;;;;2.85;1.90;;;;;;;5.82;100.00;100696.75;5095456;28;20403;-68
2023/01/04 06:26:53;;;;;;;2.95;1.75;;;;;;;5.11;100.00;100683.16;5103311;28;20099;-68
2023/01/04 06:29:19;;;;;;;2.10;1.60;;;;;;;5.44;100.00;100677.00;5105834;28;20162;-68
2023/01/04 06:31:44;;;;;;;1.60;1.15;;;;;;;4.68;100.00;100660.31;5111781;28;20153;-68
2023/01/04 06:34:11;;;;;;;1.90;1.30;;;;;;;5.30;100.00;100654.50;5083372;28;20036;-68
2023/01/04 06:36:37;;;;;;;2.42;1.40;;;;;;;5.30;100.00;100643.81;5112642;28;20051;-68
2023/01/04 06:39:02;;;;;;;1.88;1.33;;;;;;;4.98;100.00;100642.84;5106690;28;20035;-68
2023/01/04 06:41:28;;;;;;;1.73;1.30;;;;;;;4.62;100.00;100599.66;5106567;28;20028;-68
2023/01/04 06:43:53;;;;;;;1.98;1.48;;;;;;;5.10;100.00;100625.50;5113508;28;20051;-68
2023/01/04 06:46:19;;;;;;;1.52;1.00;;;;;;;4.86;100.00;100610.31;5100430;28;20040;-69
2023/01/04 06:48:44;;;;;;;1.92;1.15;;;;;;;4.80;100.00;100612.81;5111541;28;20044;-68
2023/01/04 06:51:10;;;;;;;1.00;0.90;;;;;;;4.94;100.00;100601.50;5107934;28;20362;-68
2023/01/04 06:53:35;;;;;;;2.17;1.05;;;;;;;4.68;100.00;100573.19;5087167;28;20032;-68
2023/01/04 06:56:01;;;;;;;1.00;0.90;;;;;;;4.93;100.00;100573.16;5113568;28;20036;-68
2023/01/04 06:58:26;;;;;;;1.45;0.90;;;;;;;4.85;100.00;100581.19;5100632;28;20024;-68
2023/01/04 07:00:53;;;;;;;1.42;0.85;;;;;;;4.56;100.00;100571.84;5092832;28;20243;-68
2023/01/04 07:03:19;;;;;;;1.55;1.10;;;;;;;4.84;100.00;100531.53;5108485;28;20121;-68
2023/01/04 07:05:44;;;;;;;0.65;0.57;;;;;;;4.68;100.00;100535.88;5103699;28;20032;-68
2023/01/04 07:08:11;;;;;;;3.40;0.98;;;;;;;5.06;100.00;100573.47;5113278;28;20328;-68
2023/01/04 07:10:40;;;;;;;1.90;0.90;;;;;;;5.11;100.00;100554.31;5101843;28;20023;-68
2023/01/04 07:13:07;;;;;;;2.45;0.70;;;;;;;5.10;100.00;100565.97;5066899;28;20037;-69
2023/01/04 07:15:32;;;;;;;1.02;0.90;;;;;;;5.24;100.00;100556.47;5052049;28;20048;-68
2023/01/04 07:17:57;;;;;;;0.90;0.70;;;;;;;5.13;100.00;100545.16;5059754;28;20424;-68
2023/01/04 07:20:23;;;;;;;1.42;0.98;;;;;;;5.10;100.00;100525.97;5055280;28;20024;-68
2023/01/04 07:22:48;;;;;;;1.20;0.82;;;;;;;5.19;100.00;100528.44;5045600;28;20041;-68
2023/01/04 07:25:14;;;;;;;1.30;0.77;;;;;;;5.27;100.00;100522.28;5065778;28;20031;-68
2023/01/04 07:27:39;;;;;;;1.30;0.93;;;;;;;5.27;99.95;100522.28;5068944;28;20074;-68
2023/01/04 07:30:05;;;;;;;1.05;0.60;;;;;;;5.16;100.00;100518.13;5058775;28;20059;-68
2023/01/04 07:32:31;;;;;;;0.60;0.60;;;;;;;4.97;100.00;100507.00;5070880;28;20523;-68
2023/01/04 07:34:57;;;;;;;0.80;0.60;;;;;;;5.07;100.00;100513.84;5062272;28;20032;-68
2023/01/04 07:37:22;;;;;;;0.50;0.50;;;;;;;4.87;100.00;100499.22;5051811;28;20037;-68
2023/01/04 07:39:48;;;;;;;0.85;0.60;;;;;;;4.98;100.00;100490.84;5075687;28;20173;-68
2023/01/04 07:42:14;;;;;;;0.68;0.55;;;;;;;4.68;100.00;100479.91;5064754;28;20037;-68
2023/01/04 07:44:39;;;;;;;1.35;0.70;;;;;;;4.66;100.00;100481.06;5110220;28;20453;-68
2023/01/04 07:47:04;;;;;;;1.55;0.55;;;;;;;4.82;100.00;100474.88;5112327;28;20027;-68
2023/01/04 07:49:30;;;;;;;0.63;0.50;;;;;;;4.53;100.00;100465.59;5111094;28;20047;-68
2023/01/04 07:51:56;;;;;;;0.50;0.50;;;;;;;4.43;100.00;100464.94;5120420;28;20038;-68
2023/01/04 07:54:23;;;;;;;1.02;0.50;;;;;;;4.50;100.00;100473.09;5106149;28;20070;-68
2023/01/04 07:56:49;;;;;;;2.15;0.60;;;;;;;4.45;100.00;100463.78;5116588;28;20372;-68
2023/01/04 07:59:16;;;;;;;0.40;0.40;;;;;;;4.28;100.00;100447.97;5112999;28;20056;-68
2023/01/04 08:01:41;;;;;;;1.08;0.50;;;;;;;4.60;100.00;100433.78;5110705;27;20028;-68
2023/01/04 08:04:08;;;;;;;0.82;0.40;;;;;;;4.52;100.00;100423.97;5120752;28;20544;-69
2023/01/04 08:06:35;;;;;;;0.30;0.30;;;;;;;4.57;100.00;100423.44;5107052;28;20035;-68
2023/01/04 08:09:02;;;;;;;0.88;0.32;;;;;;;4.27;100.00;100350.41;5115127;28;20031;-68
2023/01/04 08:11:27;;;;;;;1.10;0.40;;;;;;;4.43;100.00;100401.81;5116485;28;20027;-68
2023/01/04 08:13:52;;;;;;;0.80;0.47;;;;;;;4.64;100.00;100398.63;5109133;28;20028;-68
2023/01/04 08:16:27;;;;;;;0.82;0.30;;;;;;;4.69;100.00;100388.28;5121923;28;20028;-68
2023/01/04 08:18:54;;;;;;;;;;;;;;;4.70;100.00;100373.97;5112640;28;20104;-68
2023/01/04 08:21:20;;;;;;;0.43;0.20;;;;;;;4.71;99.79;100362.28;5114630;27;19948;-68
2023/01/04 08:23:46;;;;;;;0.40;0.20;;;;;;;4.06;100.00;100357.09;5104878;28;20047;-68
2023/01/04 08:26:13;;;;;;;0.20;0.20;;;;;;;4.53;100.00;100335.03;5121597;28;20031;-69
2023/01/04 08:28:41;;;;;;;0.70;0.25;;;;;;;4.33;100.00;100320.44;5110749;28;20047;-68
2023/01/04 08:31:13;;;;;;;1.38;0.20;;;;;;;4.44;100.00;100328.91;5116410;27;20133;-68
2023/01/04 08:33:40;;;;;;;0.63;0.20;;;;;;;4.41;100.00;100323.09;5118403;28;20035;-68
2023/01/04 08:36:19;;;;;;;0.43;0.20;;;;;;;4.17;100.00;100300.84;5107988;27;20235;-69
2023/01/04 08:38:46;;;;;;;0.30;0.25;;;;;;;4.35;100.00;100302.47;5117323;28;20032;-69
2023/01/04 08:41:12;;;;;;;0.45;0.20;;;;;;;4.16;100.00;100283.19;5111170;28;20031;-67
2023/01/04 08:43:37;;;;;;;1.05;0.20;;;;;;;4.22;100.00;100271.88;5110271;27;20059;-68
2023/01/04 08:46:04;;;;;;;0.28;0.28;;;;;;;4.28;100.00;100272.19;5119988;28;20110;-68
2023/01/04 08:48:30;;;;;;;0.70;0.30;;;;;;;4.46;100.00;100278.94;5086222;28;20417;-66
2023/01/04 08:51:19;;;;;;;0.20;0.10;;;;;;;4.38;100.00;100265.66;5111846;28;20024;-68
2023/01/04 08:53:45;;;;;;;0.35;0.20;;;;;;;4.20;100.00;100257.06;5076386;28;20076;-68
2023/01/04 08:56:11;;;;;;;0.65;0.20;;;;;;;4.19;100.00;100234.94;5059806;28;20141;-68
2023/01/04 08:58:36;;;;;;;0.40;0.20;;;;;;;4.27;100.00;100226.06;5078012;28;20039;-68
2023/01/04 09:01:04;;;;;;;0.75;0.20;;;;;;;4.13;100.00;100208.16;5078887;28;20100;-67
2023/01/04 09:03:30;;;;;;;0.85;0.20;;;;;;;4.76;100.00;100217.84;5078276;28;20526;-67
2023/01/04 09:06:08;;;;;;;0.30;0.20;;;;;;;4.52;100.00;100172.69;5061340;28;20430;-67
2023/01/04 09:08:34;;;;;;;0.30;0.10;;;;;;;4.58;100.00;100196.81;5061990;28;20040;-68
2023/01/04 09:11:08;;;;;;;2.38;0.10;;;;;;;4.67;100.00;100166.44;5060718;28;20040;-68
2023/01/04 09:13:35;;;;;;;0.20;0.20;;;;;;;4.84;100.00;100166.34;5045294;28;20447;-66
2023/01/04 09:16:05;;;;;;;0.13;0.10;;;;;;;4.97;100.00;100171.06;5077468;28;20268;-68
2023/01/04 09:18:32;;;;;;;0.20;0.10;;;;;;;5.06;100.00;100167.31;5061711;28;20051;-67
2023/01/04 09:21:00;;;;;;;0.30;0.20;;;;;;;4.74;100.00;100152.41;5077679;28;20048;-67
2023/01/04 09:23:27;;;;;;;0.52;0.20;;;;;;;5.12;100.00;100150.59;5078412;28;20040;-67
2023/01/04 09:25:53;;;;;;;0.43;0.10;;;;;;;5.06;100.00;100144.16;5116367;28;20117;-67
2023/01/04 09:28:19;;;;;;;0.13;0.10;;;;;;;4.87;100.00;100121.50;5086475;28;20044;-67
2023/01/04 09:30:44;;;;;;;0.32;0.10;;;;;;;5.08;100.00;100126.13;5097720;28;20434;-67
2023/01/04 09:33:09;;;;;;;0.10;0.10;;;;;;;4.81;100.00;100127.53;5108221;28;20040;-67
2023/01/04 09:35:35;;;;;;;0.77;0.20;;;;;;;4.87;100.00;100129.50;5109356;28;20099;-67
2023/01/04 09:38:00;;;;;;;0.52;0.20;;;;;;;5.06;100.00;100109.47;5116694;28;20031;-67
2023/01/04 09:40:53;;;;;;;0.60;0.20;;;;;;;5.04;100.00;100103.53;5106485;28;20058;-67
2023/01/04 09:43:20;;;;;;;0.40;0.20;;;;;;;5.25;100.00;100123.31;5082512;28;20044;-67
2023/01/04 09:45:52;;;;;;;0.50;0.20;;;;;;;4.87;100.00;100126.00;5114958;28;20035;-68
2023/01/04 09:48:31;;;;;;;0.20;0.00;;;;;;;4.97;100.00;100118.59;5105091;28;20075;-67
2023/01/04 09:51:01;;;;;;;0.30;0.10;;;;;;;4.88;100.00;100098.31;5114497;28;20076;-67
2023/01/04 09:53:32;;;;;;;0.10;0.10;;;;;;;4.82;100.00;100105.19;5111551;28;20027;-67
2023/01/04 09:56:19;;;;;;;1.08;0.10;;;;;;;4.85;100.00;100062.19;5106099;27;20405;-67
2023/01/04 09:58:46;;;;;;;0.65;0.10;;;;;;;4.65;100.00;100074.34;5093293;28;20020;-67
2023/01/04 10:01:29;;;;;;;0.50;0.20;;;;;;;4.98;100.00;100066.09;5112257;28;20400;-68
2023/01/04 10:04:12;;;;;;;0.47;0.20;;;;;;;5.15;100.00;100075.56;5117886;28;20439;-67
2023/01/04 10:06:38;;;;;;;0.32;0.10;;;;;;;5.01;100.00;100047.06;5090647;28;20039;-67
2023/01/04 10:09:10;;;;;;;0.25;0.20;;;;;;;5.19;100.00;100040.34;5112170;28;20053;-67
2023/01/04 10:11:54;;;;;;;0.20;0.20;;;;;;;5.03;100.00;100031.69;5114261;28;20030;-68
2023/01/04 10:14:35;;;;;;;0.68;0.10;;;;;;;5.29;100.00;100025.91;5103802;28;20082;-68
2023/01/04 10:17:39;;;;;;;0.20;0.10;;;;;;;5.41;100.00;100011.94;5114423;28;20035;-67
2023/01/04 10:20:11;;;;;;;0.32;0.17;;;;;;;5.16;100.00;100007.88;5113691;28;20368;-68
2023/01/04 10:22:58;;;;;;;0.30;0.10;;;;;;;5.01;100.00;99989.22;5089466;28;20028;-66
2023/01/04 10:25:42;;;;;;;1.27;0.20;;;;;;;5.37;100.00;99991.16;5109033;28;20039;-67
2023/01/04 10:28:18;;;;;;;0.20;0.10;;;;;;;4.94;100.00;99974.97;5115078;28;20587;-65
2023/01/04 10:30:58;;;;;;;0.50;0.10;;;;;;;5.08;100.00;99968.00;5102278;28;20028;-66
2023/01/04 10:33:42;;;;;;;0.10;0.10;;;;;;;4.95;100.00;99969.44;5107691;28;20024;-67
2023/01/04 10:36:21;;;;;;;0.20;0.17;;;;;;;4.99;100.00;99959.25;5114663;28;20036;-66
2023/01/04 10:38:58;;;;;;;0.10;0.10;;;;;;;5.16;100.00;99947.38;5104577;28;20020;-66
2023/01/04 10:41:30;;;;;;;0.40;0.10;;;;;;;5.08;100.00;99952.00;5107206;28;20023;-67
2023/01/04 10:44:16;;;;;;;0.30;0.20;;;;;;;5.31;100.00;99935.88;5113535;28;20081;-66
2023/01/04 10:46:45;;;;;;;0.30;0.13;;;;;;;5.27;100.00;99913.28;5086232;28;20024;-66
2023/01/04 10:49:27;;;;;;;1.83;0.10;;;;;;;5.39;100.00;99914.41;5109810;28;20034;-66
2023/01/04 10:52:14;;;;;;;0.10;0.10;;;;;;;5.37;100.00;99895.13;5111471;28;20023;-66
2023/01/04 10:54:46;;;;;;;0.30;0.10;;;;;;;5.37;100.00;99893.28;5102126;27;20386;-66
2023/01/04 10:57:25;;;;;;;0.20;0.20;;;;;;;5.19;100.00;99858.16;5107685;28;20169;-66
2023/01/04 10:59:59;;;;;;;1.15;0.20;;;;;;;5.50;100.00;99883.78;5112077;28;20023;-66
2023/01/04 11:02:33;;;;;;;1.33;0.20;;;;;;;5.28;100.00;99877.56;5100988;28;20059;-66
2023/01/04 11:05:08;;;;;;;0.57;0.20;;;;;;;5.58;100.00;99879.13;5110742;28;20486;-66
2023/01/04 11:07:59;;;;;;;1.13;0.30;;;;;;;5.60;100.00;99854.94;5109760;28;20038;-66
2023/01/04 11:10:28;;;;;;;0.22;0.10;;;;;;;5.62;100.00;99853.72;5061168;28;20040;-66
2023/01/04 11:12:54;;;;;;;0.40;0.20;;;;;;;5.33;100.00;99845.81;5071330;28;20032;-66
2023/01/04 11:15:20;;;;;;;0.75;0.22;;;;;;;5.54;100.00;99827.16;5085403;28;20059;-67
2023/01/04 11:17:47;;;;;;;1.58;0.10;;;;;;;5.57;100.00;99833.97;5064738;28;20122;-67
2023/01/04 11:20:13;;;;;;;0.32;0.20;;;;;;;5.81;100.00;99825.56;5091317;28;20118;-66
2023/01/04 11:22:45;;;;;;;0.20;0.10;;;;;;;5.41;100.00;99835.84;5062375;28;20074;-66
2023/01/04 11:25:16;;;;;;;0.10;0.10;;;;;;;5.19;100.00;99831.50;5086499;28;20032;-66
2023/01/04 11:28:14;;;;;;;0.20;0.10;;;;;;;5.49;100.00;99831.41;5071518;28;20464;-66
2023/01/04 11:30:49;;;;;;;0.40;0.20;;;;;;;5.41;100.00;99824.38;5064874;28;20579;-66
2023/01/04 11:33:17;;;;;;;0.25;0.20;;;;;;;5.75;100.00;99828.19;5069771;28;20035;-66
2023/01/04 11:36:09;;;;;;;0.73;0.40;;;;;;;5.72;100.00;99820.53;5087855;28;20044;-66
2023/01/04 11:38:34;;;;;;;0.52;0.28;;;;;;;5.58;100.00;99799.06;5028955;28;20046;-66
2023/01/04 11:41:06;;;;;;;0.20;0.20;;;;;;;5.85;100.00;99767.28;5095144;28;20032;-65
2023/01/04 11:43:59;;;;;;;1.45;0.20;;;;;;;6.08;100.00;99757.19;5091380;28;20051;-68
2023/01/04 11:46:28;;;;;;;0.75;0.40;;;;;;;5.98;100.00;99742.53;5115831;28;20051;-65
2023/01/04 11:48:54;;;;;;;0.70;0.30;;;;;;;5.54;100.00;99717.75;5113298;28;20062;-65
2023/01/04 11:51:28;;;;;;;0.30;0.20;;;;;;;5.97;100.00;99719.53;5108433;28;20023;-66
2023/01/04 11:54:01;;;;;;;1.60;0.28;;;;;;;5.81;100.00;99709.94;5103227;28;20032;-65
2023/01/04 11:56:29;;;;;;;2.03;0.40;;;;;;;5.83;100.00;99715.94;5115222;28;20027;-65
2023/01/04 11:59:12;;;;;;;1.45;0.28;;;;;;;5.61;100.00;99702.63;5105022;28;20055;-66
2023/01/04 12:02:07;;;;;;;0.70;0.35;;;;;;;6.02;100.00;99709.91;5104218;28;20088;-66
2023/01/04 12:04:33;;;;;;;0.52;0.35;;;;;;;5.81;100.00;99709.94;5073686;28;20454;-68
2023/01/04 12:07:14;;;;;;;0.63;0.38;;;;;;;5.78;100.00;99691.66;5057672;28;20127;-66
2023/01/04 12:09:40;;;;;;;0.32;0.30;;;;;;;5.73;100.00;99710.94;5073496;28;20119;-66
2023/01/04 12:12:05;;;;;;;0.30;0.30;;;;;;;6.00;100.00;99698.63;5057072;28;20060;-66
2023/01/04 12:14:36;;;;;;;0.88;0.50;;;;;;;5.72;100.00;99693.25;5056450;28;20538;-66
2023/01/04 12:17:18;;;;;;;0.82;0.50;;;;;;;5.51;100.00;99664.78;5057835;28;20120;-66
2023/01/04 12:19:45;;;;;;;1.38;0.88;;;;;;;5.72;100.00;99655.06;5073656;28;20075;-66
2023/01/04 12:22:23;;;;;;;4.38;1.80;;;;;;;5.75;100.00;99636.81;5074403;28;20464;-66